createdAt,value
2019-06-10T00:02:42.524Z,101264.25
2019-06-10T00:07:46.562Z,101267.48
2019-06-10T00:12:51.763Z,101279.30
2019-06-10T00:18:18.979Z,101294.24
2019-06-10T00:23:04.047Z,101299.26
2019-06-10T00:28:09.534Z,101298.22
2019-06-10T00:33:31.208Z,101285.95
2019-06-10T00:38:35.534Z,101270.47
2019-06-10T00:43:41.163Z,101252.98
2019-06-10T00:48:45.250Z,101248.76
2019-06-10T00:53:51.466Z,101251.77
2019-06-10T00:58:54.971Z,101235.89
2019-06-10T01:04:01.380Z,101225.16
2019-06-10T01:09:06.759Z,101210.34
2019-06-10T01:14:12.535Z,101219.95
2019-06-10T01:19:16.950Z,101198.05
2019-06-10T01:24:22.405Z,101206.39
2019-06-10T01:29:26.697Z,101196.30
2019-06-10T01:34:31.195Z,101183.78
2019-06-10T01:39:35.755Z,101184.91
2019-06-10T01:44:41.236Z,101186.59
2019-06-10T01:49:47.482Z,101186.39
2019-06-10T01:54:51.742Z,101175.94
2019-06-10T01:59:55.805Z,101158.77
2019-06-10T02:05:01.562Z,101133.84
2019-06-10T02:10:06.723Z,101111.40
2019-06-10T02:15:12.576Z,101115.63
2019-06-10T02:20:18.125Z,101101.47
2019-06-10T02:25:22.987Z,101081.52
2019-06-10T02:30:41.764Z,101074.31
2019-06-10T02:35:43.290Z,101068.92
2019-06-10T02:40:43.303Z,101041.03
2019-06-10T02:45:46.099Z,101028.88
2019-06-10T02:51:05.632Z,101020.80
2019-06-10T02:56:12.454Z,101016.86
2019-06-10T03:01:17.355Z,101006.73
2019-06-10T03:06:30.343Z,101005.99
2019-06-10T03:11:32.412Z,101002.97
2019-06-10T03:16:33.602Z,101015.07
2019-06-10T03:21:37.830Z,101020.07
2019-06-10T03:26:42.898Z,101042.40
2019-06-10T03:31:48.551Z,101068.41
2019-06-10T03:36:53.511Z,101063.52
2019-06-10T03:41:57.901Z,101059.66
2019-06-10T03:47:02.811Z,101076.17
2019-06-10T03:52:07.787Z,101044.67
2019-06-10T03:57:12.126Z,101028.70
2019-06-10T04:02:17.291Z,101040.12
2019-06-10T04:07:26.481Z,101033.08
2019-06-10T04:12:29.023Z,101031.95
2019-06-10T04:17:33.423Z,101011.66
2019-06-10T04:22:37.602Z,101005.41
2019-06-10T04:27:42.509Z,100997.35
2019-06-10T04:32:46.640Z,100989.94
2019-06-10T04:37:52.056Z,100958.45
2019-06-10T04:42:56.198Z,100955.13
2019-06-10T04:48:02.900Z,100946.09
2019-06-10T04:53:06.473Z,100963.89
2019-06-10T04:58:12.986Z,100989.66
2019-06-10T05:03:16.726Z,101000.16
2019-06-10T05:08:21.563Z,100998.75
2019-06-10T05:13:27.078Z,100984.39
2019-06-10T05:18:33.227Z,100989.81
2019-06-10T05:23:38.110Z,100986.58
2019-06-10T05:28:43.208Z,100967.43
2019-06-10T05:33:47.582Z,100974.05
2019-06-10T05:38:52.565Z,100979.31
2019-06-10T05:43:56.898Z,100977.14
2019-06-10T05:49:03.091Z,100982.63
2019-06-10T05:54:07.131Z,100976.31
2019-06-10T05:59:12.179Z,100967.27
2019-06-10T06:04:16.218Z,100980.20
2019-06-10T06:09:22.116Z,100973.11
2019-06-10T06:14:27.520Z,100979.34
2019-06-10T06:19:33.718Z,100976.13
2019-06-10T06:24:38.065Z,100983.52
2019-06-10T06:29:43.202Z,100985.45
2019-06-10T06:34:47.455Z,100955.80
2019-06-10T06:39:52.342Z,100932.77
2019-06-10T06:44:57.097Z,100924.26
2019-06-10T06:50:02.756Z,100916.16
2019-06-10T06:55:07.383Z,100935.63
2019-06-10T07:00:37.322Z,100940.23
2019-06-10T07:05:18.772Z,100927.11
2019-06-10T07:10:23.083Z,100923.40
2019-06-10T07:15:41.096Z,100921.39
2019-06-10T07:20:45.778Z,100929.99
2019-06-10T07:25:50.114Z,100932.81
2019-06-10T07:30:55.392Z,100922.61
2019-06-10T07:35:59.623Z,100930.48
2019-06-10T07:41:03.843Z,100924.45
2019-06-10T07:46:08.113Z,100928.96
2019-06-10T07:51:13.208Z,100942.16
2019-06-10T07:56:18.083Z,100933.64
2019-06-10T08:01:23.140Z,100927.25
2019-06-10T08:06:27.389Z,100919.84
2019-06-10T08:11:35.437Z,100916.25
2019-06-10T08:16:39.902Z,100919.19
2019-06-10T08:21:47.368Z,100926.11
2019-06-10T08:26:50.156Z,100933.20
2019-06-10T08:31:54.415Z,100931.84
2019-06-10T08:36:58.803Z,100923.47
2019-06-10T08:42:03.341Z,100922.48
2019-06-10T08:47:07.973Z,100916.08
2019-06-10T08:52:12.902Z,100916.25
2019-06-10T08:57:17.072Z,100912.56
2019-06-10T09:02:23.335Z,100923.55
2019-06-10T09:07:32.175Z,100923.08
2019-06-10T09:12:36.889Z,100912.77
2019-06-10T09:17:44.723Z,100912.42
2019-06-10T09:23:11.198Z,100892.05
2019-06-10T09:28:02.366Z,100896.38
2019-06-10T09:33:06.891Z,100891.61
2019-06-10T09:38:10.999Z,100882.38
2019-06-10T09:43:15.758Z,100876.02
2019-06-10T09:48:22.920Z,100870.34
2019-06-10T09:53:38.960Z,100877.24
2019-06-10T09:58:33.292Z,100873.56
2019-06-10T10:03:37.271Z,100883.61
2019-06-10T10:08:45.989Z,100882.62
2019-06-10T10:13:49.543Z,100877.95
2019-06-10T10:19:00.212Z,100881.91
2019-06-10T10:24:07.980Z,100875.65
2019-06-10T10:29:07.096Z,100866.69
2019-06-10T10:34:13.446Z,100867.53
2019-06-10T10:39:16.943Z,100869.71
2019-06-10T10:44:21.625Z,100861.19
2019-06-10T10:49:25.709Z,100856.20
2019-06-10T10:54:36.021Z,100864.07
2019-06-10T10:59:36.023Z,100867.81
2019-06-10T11:04:44.743Z,100864.83
2019-06-10T11:09:50.316Z,100863.77
2019-06-10T11:15:00.458Z,100869.30
2019-06-10T11:20:03.829Z,100860.61
2019-06-10T11:25:08.220Z,100847.31
2019-06-10T11:30:12.590Z,100847.59
2019-06-10T11:35:17.041Z,100839.81
2019-06-10T11:40:22.739Z,100833.39
2019-06-10T11:45:26.890Z,100831.69
2019-06-10T11:50:33.267Z,100829.41
2019-06-10T11:55:44.298Z,100821.95
2019-06-10T12:00:50.325Z,100817.63
2019-06-10T12:05:58.993Z,100815.34
2019-06-10T12:11:02.353Z,100808.38
2019-06-10T12:16:58.350Z,100810.03
2019-06-10T12:21:18.607Z,100797.58
2019-06-10T12:26:23.621Z,100786.90
2019-06-10T12:31:27.735Z,100802.59
2019-06-10T12:36:32.976Z,100800.86
2019-06-10T12:41:37.037Z,100789.06
2019-06-10T12:46:43.097Z,100772.78
2019-06-10T12:51:46.975Z,100762.69
2019-06-10T12:56:52.739Z,100766.42
2019-06-10T13:01:58.070Z,100756.91
2019-06-10T13:07:05.746Z,100740.18
2019-06-10T13:12:12.951Z,100739.93
2019-06-10T13:17:17.375Z,100719.45
2019-06-10T13:22:23.079Z,100717.47
2019-06-10T13:27:27.167Z,100695.58
2019-06-10T13:32:32.492Z,100686.11
2019-06-10T13:37:38.976Z,100675.03
2019-06-10T13:42:43.051Z,100678.43
2019-06-10T13:47:47.233Z,100682.28
2019-06-10T13:52:52.136Z,100664.33
2019-06-10T13:57:56.389Z,100653.58
2019-06-10T14:03:05.122Z,100654.80
2019-06-10T14:08:09.358Z,100639.70
2019-06-10T14:13:15.427Z,100639.08
2019-06-10T14:18:18.473Z,100633.92
2019-06-10T14:23:42.351Z,100626.88
2019-06-10T14:29:06.226Z,100626.56
2019-06-10T14:34:16.744Z,100626.17
2019-06-10T14:39:37.614Z,100617.89
2019-06-10T14:44:52.673Z,100612.63
2019-06-10T14:49:57.606Z,100617.25
2019-06-10T14:55:03.226Z,100618.02
2019-06-10T15:00:09.781Z,100606.56
2019-06-10T15:05:17.362Z,100602.86
2019-06-10T15:10:23.120Z,100606.76
2019-06-10T15:15:26.672Z,100600.90
2019-06-10T15:20:32.924Z,100603.45
2019-06-10T15:25:49.149Z,100592.56
2019-06-10T15:30:43.537Z,100583.64
2019-06-10T15:35:47.986Z,100570.30
2019-06-10T15:40:53.263Z,100575.63
2019-06-10T15:45:57.589Z,100571.62
2019-06-10T15:51:03.073Z,100574.64
2019-06-10T15:56:22.596Z,100605.90
2019-06-10T16:01:16.675Z,100600.22
2019-06-10T16:06:20.245Z,100573.27
2019-06-10T16:11:27.168Z,100566.53
2019-06-10T16:16:32.507Z,100555.55
2019-06-10T16:21:37.081Z,100544.95
2019-06-10T16:26:41.159Z,100548.44
2019-06-10T16:31:45.875Z,100534.97
2019-06-10T16:36:49.983Z,100524.64
2019-06-10T16:42:12.427Z,100521.50
2019-06-10T16:47:16.960Z,100513.03
2019-06-10T16:52:24.036Z,100519.16
2019-06-10T16:57:58.579Z,100521.42
2019-06-10T17:02:52.966Z,100532.86
2019-06-10T17:08:14.664Z,100534.30
2019-06-10T17:13:18.967Z,100532.07
2019-06-10T17:18:24.910Z,100537.66
2019-06-10T17:23:35.312Z,100533.86
2019-06-10T17:28:36.905Z,100541.52
2019-06-10T17:33:42.755Z,100548.27
2019-06-10T17:38:46.446Z,100537.34
2019-06-10T17:43:52.116Z,100531.77
2019-06-10T17:48:56.371Z,100540.92
2019-06-10T17:54:18.708Z,100530.16
2019-06-10T17:59:24.067Z,100530.40
2019-06-10T18:04:29.715Z,100520.34
2019-06-10T18:09:36.920Z,100529.19
2019-06-10T18:14:39.881Z,100530.92
2019-06-10T18:19:44.216Z,100521.66
2019-06-10T18:24:52.332Z,100520.38
2019-06-10T18:29:56.622Z,100517.89
2019-06-10T18:35:02.933Z,100505.58
2019-06-10T18:40:07.751Z,100509.16
2019-06-10T18:45:13.430Z,100515.48
2019-06-10T18:50:17.886Z,100509.19
2019-06-10T18:55:22.665Z,100503.42
2019-06-10T19:00:44.978Z,100490.80
2019-06-10T19:05:36.298Z,100473.80
2019-06-10T19:10:43.177Z,100476.23
2019-06-10T19:15:52.965Z,100490.69
2019-06-10T19:21:04.166Z,100488.18
2019-06-10T19:26:09.093Z,100475.30
2019-06-10T19:31:16.280Z,100504.03
2019-06-10T19:36:23.651Z,100519.23
2019-06-10T19:41:33.311Z,100530.63
2019-06-10T19:46:42.802Z,100538.81
2019-06-10T19:51:47.142Z,100538.95
2019-06-10T19:56:52.460Z,100549.89
2019-06-10T20:01:58.409Z,100546.56
2019-06-10T20:07:03.649Z,100544.88
2019-06-10T20:12:08.343Z,100533.63
2019-06-10T20:17:13.785Z,100529.94
2019-06-10T20:22:22.679Z,100530.89
2019-06-10T20:27:26.108Z,100513.86
2019-06-10T20:32:30.283Z,100519.36
2019-06-10T20:37:35.098Z,100520.16
2019-06-10T20:42:48.739Z,100519.07
2019-06-10T20:47:54.336Z,100521.72
2019-06-10T20:53:13.811Z,100521.95
2019-06-10T20:58:07.445Z,100512.09
2019-06-10T21:03:11.577Z,100490.41
2019-06-10T21:08:17.226Z,100467.92
2019-06-10T21:13:22.654Z,100489.84
2019-06-10T21:18:27.060Z,100492.11
2019-06-10T21:23:31.415Z,100468.82
2019-06-10T21:28:35.505Z,100476.71
2019-06-10T21:33:43.793Z,100461.91
2019-06-10T21:38:49.354Z,100466.17
2019-06-10T21:43:59.250Z,100451.69
2019-06-10T21:49:00.194Z,100450.88
2019-06-10T21:54:05.145Z,100450.76
2019-06-10T21:59:10.014Z,100429.08
2019-06-10T22:04:15.466Z,100393.66
2019-06-10T22:09:19.896Z,100419.84
2019-06-10T22:14:24.373Z,100415.83
2019-06-10T22:19:28.498Z,100403.14
2019-06-10T22:24:33.704Z,100401.16
2019-06-10T22:29:37.748Z,100406.53
2019-06-10T22:34:42.194Z,100424.79
2019-06-10T22:39:47.699Z,100425.59
2019-06-10T22:44:54.490Z,100430.61
2019-06-10T22:49:59.990Z,100399.72
2019-06-10T22:55:04.121Z,100389.80
2019-06-10T23:00:08.913Z,100348.96
2019-06-10T23:05:17.180Z,100348.64
2019-06-10T23:10:22.691Z,100370.09
2019-06-10T23:15:26.354Z,100352.42
2019-06-10T23:20:30.354Z,100318.02
2019-06-10T23:25:34.561Z,100338.63
2019-06-10T23:30:39.004Z,100363.91
2019-06-10T23:35:43.247Z,100474.73
2019-06-10T23:40:47.331Z,100504.46
2019-06-10T23:45:51.646Z,100503.48
2019-06-10T23:50:57.753Z,100514.98
2019-06-10T23:56:04.678Z,100522.13
